Time;durP1;ratioP1;P1;durP2;ratioP2;P2;SDS_P1;SDS_P2;PMS_P1;PMS_P2;Temp;Humidity;BMP_temperature;BMP_pressure;BME280_temperature;BME280_humidity;BME280_pressure;Samples;Min_cycle;Max_cycle;Signal;HPM_P1;HPM_P2
2021/03/09 00:02:24;;;;;;;54.20;25.33;;;3.00;99.90;;;;;;5005639;28;20045;-79
2021/03/09 00:04:49;;;;;;;52.42;27.42;;;2.90;99.90;;;;;;5046867;28;20493;-82
2021/03/09 00:07:15;;;;;;;46.92;27.50;;;2.90;99.90;;;;;;5049589;28;20481;-81
2021/03/09 00:09:42;;;;;;;51.88;27.05;;;2.90;99.90;;;;;;5027829;28;20470;-78
2021/03/09 00:12:09;;;;;;;56.08;28.98;;;2.90;99.90;;;;;;5030959;28;20049;-75
2021/03/09 00:14:34;;;;;;;;;;;2.90;99.90;;;;;;5030735;28;20047;-79
2021/03/09 00:17:00;;;;;;;60.10;27.42;;;2.90;99.90;;;;;;5032526;28;19928;-76
2021/03/09 00:19:26;;;;;;;60.70;29.88;;;2.90;99.90;;;;;;5034492;28;20067;-77
2021/03/09 00:21:52;;;;;;;63.40;29.75;;;2.90;99.90;;;;;;5033261;28;20439;-81
2021/03/09 00:24:18;;;;;;;52.95;28.92;;;3.00;99.90;;;;;;5049225;28;20033;-80
2021/03/09 00:26:44;;;;;;;56.13;29.77;;;3.00;99.90;;;;;;5023084;28;20029;-76
2021/03/09 00:29:09;;;;;;;53.75;28.45;;;3.00;99.90;;;;;;5042497;28;20513;-75
2021/03/09 00:31:35;;;;;;;60.10;31.30;;;3.00;99.90;;;;;;5049071;28;20526;-77
2021/03/09 00:34:01;;;;;;;51.05;28.10;;;3.10;99.90;;;;;;5021913;28;20033;-78
2021/03/09 00:36:27;;;;;;;46.10;26.20;;;3.10;99.90;;;;;;5022492;28;20061;-80
2021/03/09 00:38:53;;;;;;;57.80;28.80;;;3.10;99.90;;;;;;5024725;28;20044;-79
2021/03/09 00:41:18;;;;;;;54.13;28.85;;;3.10;99.90;;;;;;5020834;28;20827;-80
2021/03/09 00:43:44;;;;;;;61.80;30.42;;;3.60;99.90;;;;;;5030286;28;20382;-77
2021/03/09 00:46:10;;;;;;;52.75;29.58;;;3.10;99.90;;;;;;5038269;28;20145;-81
2021/03/09 00:48:40;;;;;;;57.40;29.98;;;3.10;99.90;;;;;;5011973;28;20049;-79
2021/03/09 00:51:06;;;;;;;50.17;27.52;;;3.10;99.90;;;;;;5020120;28;20116;-77
2021/03/09 00:53:32;;;;;;;54.20;27.50;;;3.10;99.90;;;;;;5043665;28;20045;-77
2021/03/09 00:55:58;;;;;;;53.20;29.02;;;3.10;99.90;;;;;;5045005;28;20482;-76
2021/03/09 00:58:24;;;;;;;62.28;31.95;;;3.10;99.90;;;;;;5050271;28;20056;-77
2021/03/09 01:00:50;;;;;;;57.58;30.13;;;3.10;99.90;;;;;;5051646;28;20040;-79
2021/03/09 01:03:16;;;;;;;57.47;29.75;;;3.20;99.90;;;;;;5037862;28;20048;-79
2021/03/09 01:05:42;;;;;;;55.83;28.67;;;3.20;99.90;;;;;;5043892;28;20454;-77
2021/03/09 01:08:08;;;;;;;52.53;30.23;;;3.20;99.90;;;;;;5053683;28;20060;-79
2021/03/09 01:10:35;;;;;;;57.47;29.35;;;3.20;99.90;;;;;;5044398;28;20068;-77
2021/03/09 01:13:01;;;;;;;64.93;31.70;;;3.20;99.90;;;;;;5048042;28;20032;-78
2021/03/09 01:15:27;;;;;;;55.63;30.20;;;3.40;99.90;;;;;;5051445;28;20124;-79
2021/03/09 01:17:52;;;;;;;60.13;29.30;;;3.20;99.90;;;;;;5052807;28;20116;-79
2021/03/09 01:20:19;;;;;;;63.65;30.23;;;3.20;99.90;;;;;;5046442;28;20038;-76
2021/03/09 01:22:45;;;;;;;52.38;30.00;;;3.30;99.90;;;;;;5029567;28;20117;-77
2021/03/09 01:25:14;;;;;;;54.63;28.90;;;3.20;99.90;;;;;;5028562;28;20048;-79
2021/03/09 01:27:40;;;;;;;51.72;27.55;;;3.20;99.90;;;;;;5050136;28;20445;-79
2021/03/09 01:30:08;;;;;;;56.38;29.27;;;3.30;99.90;;;;;;5045314;28;20045;-81
2021/03/09 01:32:34;;;;;;;62.13;29.60;;;3.30;99.90;;;;;;5050450;28;20041;-77
2021/03/09 01:35:00;;;;;;;;;;;3.30;99.90;;;;;;5041064;28;20042;-82
2021/03/09 01:37:26;;;;;;;53.40;29.40;;;3.30;99.90;;;;;;5051029;28;19917;-75
2021/03/09 01:39:52;;;;;;;52.50;27.48;;;3.30;99.90;;;;;;5051635;28;20486;-78
2021/03/09 01:42:18;;;;;;;54.05;28.60;;;3.50;99.90;;;;;;5052673;28;20375;-80
2021/03/09 01:44:44;;;;;;;59.30;29.60;;;3.30;99.90;;;;;;5041827;28;20117;-78
2021/03/09 01:47:12;;;;;;;;;;;3.30;99.90;;;;;;5051114;28;20053;-78
2021/03/09 01:49:39;;;;;;;49.25;28.15;;;3.30;99.90;;;;;;5048870;28;19946;-78
2021/03/09 01:52:08;;;;;;;54.00;28.52;;;3.30;99.90;;;;;;5021688;28;20091;-82
2021/03/09 01:54:35;;;;;;;49.78;27.10;;;3.30;99.90;;;;;;5043111;28;20037;-80
2021/03/09 01:57:02;;;;;;;62.55;31.05;;;3.40;99.90;;;;;;5050617;28;20065;-82
2021/03/09 01:59:30;;;;;;;53.28;26.13;;;3.30;99.90;;;;;;5046247;28;20064;-80
2021/03/09 02:01:58;;;;;;;50.97;25.52;;;3.40;99.90;;;;;;5043674;28;20049;-80
2021/03/09 02:04:24;;;;;;;52.08;27.23;;;3.40;99.90;;;;;;5053022;28;20052;-82
2021/03/09 02:06:50;;;;;;;51.45;25.88;;;3.40;99.90;;;;;;5035340;28;20049;-81
2021/03/09 02:09:18;;;;;;;47.35;26.30;;;3.40;99.90;;;;;;5034681;28;20512;-82
2021/03/09 02:11:55;;;;;;;59.92;29.15;;;3.60;99.90;;;;;;5049813;28;20458;-76
2021/03/09 02:14:46;;;;;;;54.50;28.73;;;3.40;99.90;;;;;;5048971;28;20433;-79
2021/03/09 02:18:00;;;;;;;50.33;28.05;;;3.40;99.90;;;;;;5052430;28;20048;-80
2021/03/09 02:20:57;;;;;;;55.65;28.80;;;3.40;99.90;;;;;;5033347;28;20068;-79
2021/03/09 02:24:01;;;;;;;55.75;29.45;;;3.40;99.90;;;;;;5024439;28;20781;-77
2021/03/09 02:26:56;;;;;;;48.35;26.08;;;3.40;99.90;;;;;;5038948;28;20117;-80
2021/03/09 02:29:40;;;;;;;53.38;28.20;;;3.40;99.90;;;;;;5060373;28;20048;-79
2021/03/09 02:32:14;;;;;;;58.72;28.80;;;3.40;99.90;;;;;;5052496;28;20040;-81
2021/03/09 02:34:50;;;;;;;61.53;30.45;;;3.40;99.90;;;;;;5044892;28;20448;-80
2021/03/09 02:37:17;;;;;;;52.88;27.25;;;3.50;99.90;;;;;;5043526;28;20029;-80
2021/03/09 02:39:46;;;;;;;52.30;29.05;;;3.40;99.90;;;;;;5027657;28;20046;-81
2021/03/09 02:42:18;;;;;;;53.03;27.88;;;3.40;99.90;;;;;;5041295;28;20177;-77
2021/03/09 02:44:45;;;;;;;61.97;29.45;;;3.40;99.90;;;;;;5040915;28;20041;-82
2021/03/09 02:47:14;;;;;;;53.80;27.63;;;3.40;99.90;;;;;;5043818;28;20462;-79
2021/03/09 02:49:43;;;;;;;52.70;28.23;;;3.40;99.90;;;;;;5029912;28;20091;-79
2021/03/09 02:52:15;;;;;;;54.92;27.15;;;3.40;99.90;;;;;;5050559;28;20028;-79
2021/03/09 02:54:43;;;;;;;53.40;29.60;;;3.70;99.90;;;;;;5046375;28;20039;-80
2021/03/09 02:57:12;;;;;;;52.95;28.05;;;3.40;99.90;;;;;;5033157;28;20471;-77
2021/03/09 02:59:40;;;;;;;50.15;27.02;;;3.50;99.90;;;;;;5031443;28;20108;-79
2021/03/09 03:02:06;;;;;;;62.00;31.23;;;3.40;99.90;;;;;;5026436;28;20037;-79
2021/03/09 03:04:32;;;;;;;;;;;3.50;99.90;;;;;;5020419;28;20046;-81
2021/03/09 03:06:59;;;;;;;53.88;27.50;;;3.50;99.90;;;;;;5030217;28;19950;-79
2021/03/09 03:09:26;;;;;;;64.45;31.77;;;3.50;99.90;;;;;;5007783;28;20044;-79
2021/03/09 03:11:54;;;;;;;48.40;25.70;;;3.60;99.90;;;;;;5031387;28;20041;-80
2021/03/09 03:14:21;;;;;;;48.03;25.55;;;3.50;99.90;;;;;;5051293;28;20086;-81
2021/03/09 03:16:48;;;;;;;59.28;28.40;;;3.50;99.90;;;;;;5046770;28;20041;-77
2021/03/09 03:19:14;;;;;;;51.75;26.55;;;3.50;99.90;;;;;;5049721;28;20109;-78
2021/03/09 03:21:42;;;;;;;47.30;25.08;;;3.50;99.90;;;;;;5022304;28;20043;-78
2021/03/09 03:24:09;;;;;;;57.90;27.80;;;3.50;99.90;;;;;;5051482;28;20069;-77
2021/03/09 03:26:40;;;;;;;50.70;26.15;;;3.50;99.90;;;;;;5041770;28;20155;-77
2021/03/09 03:29:09;;;;;;;59.20;29.30;;;3.50;99.90;;;;;;5056557;28;20111;-80
2021/03/09 03:31:35;;;;;;;51.28;25.38;;;3.50;99.90;;;;;;5042593;28;20060;-75
2021/03/09 03:34:02;;;;;;;;;;;3.60;99.90;;;;;;5050940;28;20037;-76
2021/03/09 03:36:28;;;;;;;43.47;23.60;;;3.60;99.90;;;;;;5032517;28;19917;-79
2021/03/09 03:38:55;;;;;;;51.63;26.13;;;3.60;99.90;;;;;;5017083;28;20064;-77
2021/03/09 03:41:21;;;;;;;53.67;25.60;;;3.60;99.90;;;;;;5041058;28;20471;-78
2021/03/09 03:43:49;;;;;;;52.90;26.83;;;3.60;99.90;;;;;;5046043;28;20049;-76
2021/03/09 03:46:15;;;;;;;50.22;26.00;;;3.60;99.90;;;;;;5019462;28;20050;-77
2021/03/09 03:48:42;;;;;;;52.78;26.80;;;3.60;99.90;;;;;;5025737;28;20072;-77
2021/03/09 03:51:12;;;;;;;54.38;28.10;;;3.70;99.90;;;;;;5011611;28;20049;-80
2021/03/09 03:54:13;;;;;;;50.10;24.83;;;3.60;99.90;;;;;;5015404;28;20034;-77
2021/03/09 03:57:05;;;;;;;52.10;25.70;;;3.60;99.90;;;;;;5018388;28;20072;-79
2021/03/09 03:59:35;;;;;;;51.70;26.33;;;3.60;99.90;;;;;;5041744;28;20044;-75
2021/03/09 04:02:06;;;;;;;44.42;23.20;;;3.80;99.90;;;;;;5025897;28;20062;-78
2021/03/09 04:04:34;;;;;;;57.47;26.50;;;3.60;99.90;;;;;;5016159;28;20048;-75
2021/03/09 04:07:01;;;;;;;45.33;24.42;;;3.70;99.90;;;;;;5018947;28;20148;-77
2021/03/09 04:09:27;;;;;;;46.45;26.13;;;3.70;99.90;;;;;;5019667;28;20343;-76
2021/03/09 04:12:01;;;;;;;56.70;25.48;;;3.70;99.90;;;;;;5025758;28;20067;-76
2021/03/09 04:14:31;;;;;;;53.83;26.48;;;3.70;99.90;;;;;;5029850;28;20410;-77
2021/03/09 04:16:58;;;;;;;43.10;24.75;;;3.70;99.90;;;;;;5043715;28;20045;-80
2021/03/09 04:19:25;;;;;;;48.08;24.95;;;3.70;99.90;;;;;;5028517;28;20040;-81
2021/03/09 04:21:53;;;;;;;46.75;24.75;;;3.70;99.90;;;;;;5021311;28;20503;-77
2021/03/09 04:24:19;;;;;;;53.35;25.77;;;3.90;99.90;;;;;;5026984;28;20049;-77
2021/03/09 04:26:46;;;;;;;50.65;26.08;;;3.70;99.90;;;;;;5029330;28;20112;-77
2021/03/09 04:29:13;;;;;;;48.72;25.55;;;3.70;99.90;;;;;;5017228;28;20037;-76
2021/03/09 04:31:41;;;;;;;49.83;24.42;;;3.80;99.90;;;;;;5028995;28;20496;-78
2021/03/09 04:34:07;;;;;;;50.22;25.85;;;3.80;99.90;;;;;;5030491;28;20057;-79
2021/03/09 04:36:34;;;;;;;50.08;25.23;;;3.80;99.90;;;;;;5023622;28;20048;-81
2021/03/09 04:39:03;;;;;;;42.67;24.90;;;3.80;99.90;;;;;;5034726;28;20084;-77
2021/03/09 04:41:29;;;;;;;46.95;23.17;;;3.80;99.90;;;;;;5032402;28;20042;-81
2021/03/09 04:43:55;;;;;;;;;;;3.90;99.90;;;;;;5016319;28;20038;-78
2021/03/09 04:46:22;;;;;;;49.22;25.92;;;3.80;99.90;;;;;;5019386;28;19932;-79
2021/03/09 04:48:49;;;;;;;51.22;25.00;;;3.80;99.90;;;;;;5027880;28;20034;-77
2021/03/09 04:51:18;;;;;;;45.88;23.27;;;3.80;99.90;;;;;;5029900;28;20382;-78
2021/03/09 04:53:45;;;;;;;51.63;27.17;;;3.80;99.90;;;;;;5022196;28;20037;-75
2021/03/09 04:56:11;;;;;;;43.85;23.95;;;3.80;99.90;;;;;;5043150;28;20037;-79
2021/03/09 04:58:38;;;;;;;47.63;25.63;;;3.90;99.90;;;;;;5033214;28;20416;-77
2021/03/09 05:01:04;;;;;;;45.40;22.90;;;4.30;99.90;;;;;;5047462;28;20132;-78
2021/03/09 05:03:34;;;;;;;43.88;24.13;;;3.90;99.90;;;;;;5031170;28;20117;-79
2021/03/09 05:06:00;;;;;;;45.33;23.40;;;3.90;99.90;;;;;;5026750;28;20034;-78
2021/03/09 05:08:26;;;;;;;49.08;25.30;;;3.90;99.90;;;;;;5023382;28;20448;-79
2021/03/09 05:10:53;;;;;;;50.95;26.10;;;4.10;99.90;;;;;;5027611;28;20037;-78
2021/03/09 05:13:19;;;;;;;51.25;25.88;;;4.20;99.90;;;;;;5029601;28;20061;-81
2021/03/09 05:15:45;;;;;;;;;;;4.00;99.90;;;;;;5019145;28;20046;-77
2021/03/09 05:18:11;;;;;;;55.58;26.75;;;3.90;99.90;;;;;;5026022;28;20362;-77
2021/03/09 05:20:38;;;;;;;54.35;26.95;;;3.90;99.90;;;;;;5030679;28;20037;-77
2021/03/09 05:23:04;;;;;;;64.60;28.80;;;3.90;99.90;;;;;;5033369;28;20731;-80
2021/03/09 05:25:31;;;;;;;50.50;24.40;;;3.90;99.90;;;;;;5027094;28;20037;-81
2021/03/09 05:27:56;;;;;;;50.08;25.55;;;3.90;99.90;;;;;;5021314;28;20392;-80
2021/03/09 05:30:23;;;;;;;46.83;24.45;;;4.10;99.90;;;;;;5032076;28;20076;-77
2021/03/09 05:32:49;;;;;;;55.35;28.92;;;4.00;99.90;;;;;;5030262;28;20485;-79
2021/03/09 05:35:15;;;;;;;55.70;27.23;;;4.00;99.90;;;;;;5030247;28;20113;-79
2021/03/09 05:37:43;;;;;;;50.13;25.98;;;4.00;99.90;;;;;;5029456;28;20055;-77
2021/03/09 05:40:09;;;;;;;51.95;28.45;;;4.10;99.90;;;;;;5027137;28;20057;-76
2021/03/09 05:42:34;;;;;;;;;;;4.00;99.90;;;;;;5010785;28;20108;-78
2021/03/09 05:45:02;;;;;;;54.88;28.13;;;4.00;99.90;;;;;;5023384;28;19921;-75
2021/03/09 05:47:28;;;;;;;58.50;27.42;;;4.00;99.90;;;;;;5040818;28;20059;-77
2021/03/09 05:49:54;;;;;;;50.30;27.30;;;4.70;99.90;;;;;;5030645;28;20115;-75
2021/03/09 05:52:20;;;;;;;58.72;28.42;;;4.00;99.90;;;;;;5026688;28;20189;-75
2021/03/09 05:54:46;;;;;;;64.47;30.15;;;4.70;99.90;;;;;;5031261;28;20573;-74
2021/03/09 05:57:12;;;;;;;;;;;4.10;99.90;;;;;;5047836;28;20114;-75
2021/03/09 05:59:45;;;;;;;60.72;29.65;;;4.00;99.90;;;;;;5038278;28;19939;-79
2021/03/09 06:02:11;;;;;;;60.33;28.95;;;4.60;99.90;;;;;;5015384;28;20375;-76
2021/03/09 06:04:37;;;;;;;76.20;32.00;;;4.10;99.90;;;;;;5047144;28;20071;-76
2021/03/09 06:07:04;;;;;;;99.28;40.22;;;4.70;99.90;;;;;;5047956;28;20091;-75
2021/03/09 06:09:38;;;;;;;89.72;36.88;;;4.10;99.90;;;;;;5040490;28;20367;-77
2021/03/09 06:12:14;;;;;;;74.22;31.40;;;4.10;99.90;;;;;;5036801;28;20825;-77
2021/03/09 06:14:42;;;;;;;79.75;35.90;;;4.10;99.90;;;;;;5046795;28;20041;-76
2021/03/09 06:17:23;;;;;;;106.10;41.53;;;4.60;99.90;;;;;;5029839;28;20064;-74
2021/03/09 06:19:49;;;;;;;105.10;40.75;;;4.20;99.90;;;;;;5043817;28;20164;-75
2021/03/09 06:22:16;;;;;;;149.35;50.30;;;4.20;99.90;;;;;;5011728;28;20128;-75
2021/03/09 06:24:45;;;;;;;132.70;46.53;;;4.20;99.90;;;;;;5048245;28;20040;-77
2021/03/09 06:27:26;;;;;;;173.85;56.55;;;4.30;99.90;;;;;;5032518;28;20094;-76
2021/03/09 06:29:52;;;;;;;160.10;49.42;;;4.70;99.90;;;;;;5042927;28;20041;-74
2021/03/09 06:32:18;;;;;;;;;;;4.20;99.90;;;;;;5043212;28;20070;-78
2021/03/09 06:34:44;;;;;;;249.25;66.72;;;4.20;99.90;;;;;;5035570;28;19994;-75
2021/03/09 06:37:24;;;;;;;271.35;66.68;;;4.20;99.90;;;;;;5045427;28;20113;-76
2021/03/09 06:40:11;;;;;;;300.63;75.50;;;4.30;99.90;;;;;;5037884;28;20045;-75
2021/03/09 06:42:38;;;;;;;204.20;54.45;;;4.30;99.90;;;;;;5028472;28;20115;-76
2021/03/09 06:45:06;;;;;;;246.43;66.00;;;4.30;99.90;;;;;;5047745;28;20037;-75
2021/03/09 06:47:41;;;;;;;287.77;61.78;;;4.30;99.90;;;;;;5018995;28;20601;-75
2021/03/09 06:50:34;;;;;;;283.58;69.50;;;4.30;99.90;;;;;;5048340;28;20170;-76
2021/03/09 06:53:03;;;;;;;213.30;59.58;;;4.40;99.90;;;;;;5027912;28;20057;-76
2021/03/09 06:55:34;;;;;;;213.10;63.45;;;4.40;99.90;;;;;;5042485;28;20781;-73
2021/03/09 06:58:13;;;;;;;377.42;88.90;;;4.40;99.90;;;;;;5046202;28;20037;-75
2021/03/09 07:00:39;;;;;;;327.02;74.93;;;5.00;99.90;;;;;;5035328;28;20033;-76
2021/03/09 07:03:25;;;;;;;398.70;94.72;;;5.20;99.90;;;;;;5029035;28;20040;-74
2021/03/09 07:06:01;;;;;;;309.35;73.18;;;4.70;99.90;;;;;;5036332;28;20076;-77
2021/03/09 07:08:26;;;;;;;280.27;68.18;;;4.80;99.90;;;;;;5022872;28;20044;-76
2021/03/09 07:10:53;;;;;;;307.88;68.75;;;4.70;99.90;;;;;;5044841;28;20029;-74
2021/03/09 07:13:23;;;;;;;277.52;66.95;;;5.00;99.90;;;;;;5039327;28;20063;-76
2021/03/09 07:15:50;;;;;;;257.77;62.25;;;4.50;99.90;;;;;;5044451;28;20095;-75
2021/03/09 07:18:20;;;;;;;253.23;59.45;;;4.60;99.90;;;;;;5045582;28;20075;-74
2021/03/09 07:20:47;;;;;;;299.42;68.75;;;4.60;99.90;;;;;;5042143;28;20136;-75
2021/03/09 07:23:18;;;;;;;441.90;86.95;;;4.60;99.90;;;;;;5044120;28;20048;-75
2021/03/09 07:25:49;;;;;;;332.85;75.90;;;4.70;99.90;;;;;;5010904;28;20045;-75
2021/03/09 07:28:17;;;;;;;296.73;71.00;;;4.70;99.90;;;;;;5021951;28;20121;-75
2021/03/09 07:30:47;;;;;;;320.77;75.65;;;5.00;99.90;;;;;;5044943;28;20195;-73
2021/03/09 07:33:14;;;;;;;362.25;78.68;;;4.70;99.90;;;;;;5024501;28;20573;-72
2021/03/09 07:35:41;;;;;;;304.92;67.75;;;4.70;99.90;;;;;;5038241;28;20375;-73
2021/03/09 07:38:08;;;;;;;348.15;73.40;;;5.20;99.90;;;;;;5047729;28;20037;-73
2021/03/09 07:40:36;;;;;;;311.98;76.38;;;4.80;99.90;;;;;;5045104;28;20095;-75
2021/03/09 07:43:02;;;;;;;368.65;82.57;;;5.80;99.90;;;;;;5042097;28;20136;-74
2021/03/09 07:45:36;;;;;;;386.10;84.15;;;4.80;99.90;;;;;;5046609;28;20041;-75
2021/03/09 07:48:06;;;;;;;443.48;100.85;;;4.80;99.90;;;;;;5038206;28;20150;-75
2021/03/09 07:50:43;;;;;;;358.42;75.68;;;4.90;99.90;;;;;;5035370;28;20049;-74
2021/03/09 07:53:12;;;;;;;319.15;71.90;;;5.50;99.90;;;;;;5041157;28;20041;-75
2021/03/09 07:55:41;;;;;;;328.83;74.68;;;4.90;99.90;;;;;;5047759;28;20057;-76
2021/03/09 07:58:17;;;;;;;299.27;72.10;;;4.90;99.90;;;;;;5043930;28;20060;-75
2021/03/09 08:00:56;;;;;;;250.85;65.68;;;4.90;99.90;;;;;;5042996;28;20103;-76
2021/03/09 08:03:25;;;;;;;205.02;57.95;;;4.90;99.90;;;;;;5041909;28;20060;-74
2021/03/09 08:06:11;;;;;;;238.18;58.58;;;4.80;99.90;;;;;;5028597;28;20049;-74
2021/03/09 08:08:42;;;;;;;247.70;62.63;;;4.80;99.90;;;;;;5047367;28;20066;-76
2021/03/09 08:11:14;;;;;;;229.45;59.20;;;4.70;99.90;;;;;;5044553;28;20036;-75
2021/03/09 08:13:41;;;;;;;212.05;58.88;;;4.70;99.90;;;;;;5044600;28;20502;-74
2021/03/09 08:16:24;;;;;;;221.38;59.63;;;4.70;99.90;;;;;;5045664;28;20077;-75
2021/03/09 08:18:54;;;;;;;180.80;51.88;;;4.90;99.90;;;;;;5046259;28;20044;-76
2021/03/09 08:21:40;;;;;;;230.98;58.00;;;4.80;99.90;;;;;;5046637;28;20594;-74
2021/03/09 08:24:07;;;;;;;184.75;53.95;;;4.70;99.90;;;;;;5045998;28;20048;-73
2021/03/09 08:26:33;;;;;;;250.77;62.10;;;4.70;99.90;;;;;;5045962;28;20045;-77
2021/03/09 08:28:59;;;;;;;177.38;49.90;;;5.20;99.90;;;;;;5052320;28;20116;-74
2021/03/09 08:31:28;;;;;;;171.32;52.22;;;5.40;99.90;;;;;;5047581;28;20033;-75
2021/03/09 08:34:06;;;;;;;166.02;45.92;;;4.90;99.90;;;;;;5042669;28;20076;-74
2021/03/09 08:36:35;;;;;;;119.47;39.47;;;4.90;99.90;;;;;;5047438;28;20052;-74
2021/03/09 08:39:13;;;;;;;98.25;38.30;;;5.10;99.90;;;;;;5046296;28;20057;-75
2021/03/09 08:41:42;;;;;;;91.40;35.72;;;5.30;99.90;;;;;;5040317;28;20048;-73
2021/03/09 08:44:16;;;;;;;85.68;31.63;;;6.00;99.90;;;;;;5044923;28;20064;-75
2021/03/09 08:46:54;;;;;;;68.63;29.38;;;5.10;99.90;;;;;;5045405;28;20037;-76
2021/03/09 08:49:38;;;;;;;63.63;29.48;;;5.00;99.90;;;;;;5025807;28;20065;-75
2021/03/09 08:52:10;;;;;;;90.80;35.97;;;5.00;99.90;;;;;;5024576;28;20072;-76
2021/03/09 08:54:52;;;;;;;84.95;36.88;;;5.10;99.90;;;;;;5018043;28;20042;-74
2021/03/09 08:57:21;;;;;;;80.03;30.60;;;5.10;99.90;;;;;;5024376;28;20061;-75
2021/03/09 08:59:49;;;;;;;96.65;33.10;;;5.20;99.90;;;;;;5025352;28;20064;-75
2021/03/09 09:02:20;;;;;;;80.13;30.15;;;5.20;99.90;;;;;;5024135;28;20041;-74
2021/03/09 09:04:56;;;;;;;75.45;29.13;;;5.20;99.90;;;;;;5024883;28;20045;-76
2021/03/09 09:07:27;;;;;;;97.15;31.83;;;5.20;99.90;;;;;;5021847;28;20046;-73
2021/03/09 09:09:59;;;;;;;83.85;32.97;;;5.10;99.90;;;;;;5020551;28;20038;-77
2021/03/09 09:12:25;;;;;;;104.20;32.25;;;5.10;99.90;;;;;;5021506;28;20038;-73
2021/03/09 09:15:16;;;;;;;87.57;30.63;;;5.10;99.90;;;;;;5024598;28;20040;-76
2021/03/09 09:17:58;;;;;;;79.47;30.08;;;5.10;99.90;;;;;;5015281;28;20495;-76
2021/03/09 09:20:32;;;;;;;81.50;31.13;;;5.10;99.90;;;;;;5021099;28;20038;-75
2021/03/09 09:23:13;;;;;;;69.95;28.80;;;5.10;99.90;;;;;;5021824;28;20071;-75
2021/03/09 09:25:44;;;;;;;87.13;34.15;;;5.10;99.90;;;;;;5024160;28;20042;-76
2021/03/09 09:28:43;;;;;;;72.78;28.30;;;5.00;99.90;;;;;;5026988;28;20349;-74
2021/03/09 09:31:16;;;;;;;72.93;29.23;;;5.10;99.90;;;;;;5020436;28;20129;-75
2021/03/09 09:33:49;;;;;;;69.40;29.08;;;5.10;99.90;;;;;;5015886;28;20197;-75
2021/03/09 09:36:15;;;;;;;51.53;25.83;;;5.10;99.90;;;;;;5023355;28;20053;-76
2021/03/09 09:38:41;;;;;;;45.58;23.75;;;5.10;99.90;;;;;;5031021;28;20034;-76
2021/03/09 09:41:07;;;;;;;52.58;25.80;;;5.40;99.90;;;;;;5030392;28;20040;-75
2021/03/09 09:43:33;;;;;;;42.00;21.27;;;5.40;99.90;;;;;;5018547;28;20107;-76
2021/03/09 09:46:14;;;;;;;42.63;22.50;;;5.10;99.90;;;;;;5029097;28;20435;-76
2021/03/09 09:48:42;;;;;;;39.30;20.40;;;5.00;99.90;;;;;;5034045;28;20462;-75
2021/03/09 09:51:19;;;;;;;44.53;22.92;;;5.00;99.90;;;;;;5032332;28;20037;-77
2021/03/09 09:53:47;;;;;;;38.83;21.45;;;5.30;99.90;;;;;;5040857;28;20091;-76
2021/03/09 09:56:16;;;;;;;36.78;19.83;;;5.00;99.90;;;;;;5049237;28;20051;-78
2021/03/09 09:58:53;;;;;;;38.58;20.33;;;5.00;99.90;;;;;;5048096;28;20143;-73
2021/03/09 10:01:18;;;;;;;38.00;18.65;;;4.90;99.90;;;;;;5041013;28;20040;-73
2021/03/09 10:04:04;;;;;;;36.00;20.27;;;4.90;99.90;;;;;;5027957;28;20045;-72
2021/03/09 10:06:51;;;;;;;42.70;22.17;;;4.80;99.90;;;;;;5047054;28;20041;-73
2021/03/09 10:09:23;;;;;;;42.80;21.85;;;4.80;99.90;;;;;;5049920;28;20425;-74
2021/03/09 10:11:51;;;;;;;42.65;21.40;;;4.90;99.90;;;;;;5048269;28;20110;-73
2021/03/09 10:14:18;;;;;;;36.50;19.60;;;4.90;99.90;;;;;;5049668;28;20041;-73
2021/03/09 10:16:45;;;;;;;38.38;21.05;;;5.00;99.90;;;;;;5048482;28;20040;-75
2021/03/09 10:19:17;;;;;;;41.67;20.90;;;5.30;99.90;;;;;;5044291;28;20041;-77
2021/03/09 10:21:45;;;;;;;40.05;21.45;;;5.00;99.90;;;;;;5026805;28;20086;-72
2021/03/09 10:24:20;;;;;;;39.22;22.70;;;4.90;99.90;;;;;;5049471;28;20405;-75
2021/03/09 10:26:48;;;;;;;37.58;22.67;;;4.90;99.90;;;;;;5049590;28;20033;-74
2021/03/09 10:29:20;;;;;;;35.20;20.70;;;4.90;99.90;;;;;;5043827;28;20130;-74
2021/03/09 10:31:51;;;;;;;40.00;21.38;;;5.00;99.90;;;;;;5040475;28;20039;-75
2021/03/09 10:34:18;;;;;;;38.67;21.50;;;5.00;99.90;;;;;;5049571;28;20071;-73
2021/03/09 10:36:50;;;;;;;37.65;19.10;;;5.10;99.90;;;;;;5050132;28;20037;-76
2021/03/09 10:39:16;;;;;;;35.80;20.77;;;5.10;99.90;;;;;;5048811;28;20037;-76
2021/03/09 10:41:42;;;;;;;;;;;5.20;99.90;;;;;;5049619;28;20091;-74
2021/03/09 10:44:26;;;;;;;33.33;18.80;;;5.30;99.90;;;;;;5033412;28;19920;-77
2021/03/09 10:46:52;;;;;;;30.90;18.85;;;5.40;99.90;;;;;;5050742;28;20095;-74
2021/03/09 10:49:18;;;;;;;38.97;21.33;;;5.50;99.90;;;;;;5048986;28;20150;-76
2021/03/09 10:51:45;;;;;;;31.08;19.13;;;5.60;99.90;;;;;;5044153;28;20064;-77
2021/03/09 10:54:10;;;;;;;28.10;17.75;;;5.60;99.90;;;;;;5018809;28;20061;-78
2021/03/09 10:56:36;;;;;;;29.98;16.48;;;5.60;99.90;;;;;;5030984;28;20079;-77
2021/03/09 10:59:03;;;;;;;24.60;15.98;;;6.00;99.90;;;;;;5036058;28;20048;-75
2021/03/09 11:01:32;;;;;;;24.65;15.77;;;5.50;99.90;;;;;;5044455;28;20056;-76
2021/03/09 11:03:58;;;;;;;24.65;15.63;;;5.50;99.90;;;;;;5028224;28;20041;-74
2021/03/09 11:06:27;;;;;;;26.95;16.35;;;5.50;99.90;;;;;;5051937;28;20040;-76
2021/03/09 11:08:53;;;;;;;26.67;15.20;;;5.40;99.90;;;;;;5016751;28;20049;-77
2021/03/09 11:11:19;;;;;;;26.08;16.17;;;5.30;99.90;;;;;;5030041;28;20078;-75
2021/03/09 11:13:45;;;;;;;28.00;16.65;;;5.50;99.90;;;;;;5032820;28;20093;-76
2021/03/09 11:16:12;;;;;;;29.75;16.45;;;5.80;99.90;;;;;;5045135;28;20120;-75
2021/03/09 11:18:37;;;;;;;24.00;14.60;;;5.40;99.90;;;;;;5050018;28;20044;-76
2021/03/09 11:21:03;;;;;;;27.17;16.23;;;5.50;99.90;;;;;;5031872;28;20070;-77
2021/03/09 11:23:29;;;;;;;23.30;14.70;;;5.50;99.90;;;;;;5049981;28;20388;-73
2021/03/09 11:25:55;;;;;;;21.02;13.68;;;5.90;99.90;;;;;;5049901;28;20045;-74
2021/03/09 11:28:20;;;;;;;24.02;15.13;;;5.50;99.90;;;;;;5049818;28;20056;-76
2021/03/09 11:30:47;;;;;;;24.77;15.07;;;5.50;99.90;;;;;;5034123;28;20041;-77
2021/03/09 11:33:13;;;;;;;23.63;14.35;;;5.80;99.90;;;;;;5033223;28;20048;-75
2021/03/09 11:35:39;;;;;;;19.15;12.98;;;5.60;99.90;;;;;;5034280;28;20041;-74
2021/03/09 11:38:04;;;;;;;20.88;14.13;;;5.60;99.90;;;;;;5033200;28;20520;-77
2021/03/09 11:40:30;;;;;;;22.52;14.20;;;5.60;99.90;;;;;;5033407;28;20045;-77
2021/03/09 11:42:56;;;;;;;21.60;13.63;;;5.60;99.90;;;;;;5049212;28;20764;-73
2021/03/09 11:45:22;;;;;;;25.83;15.88;;;5.70;99.90;;;;;;5046219;28;20569;-76
2021/03/09 11:47:48;;;;;;;22.77;14.15;;;5.60;99.90;;;;;;5048577;28;20107;-76
2021/03/09 11:50:14;;;;;;;21.20;13.30;;;5.70;99.90;;;;;;5034769;28;20052;-75
2021/03/09 11:52:44;;;;;;;21.83;13.40;;;5.50;99.90;;;;;;5039331;28;20045;-77
2021/03/09 11:55:11;;;;;;;20.63;13.02;;;5.50;99.90;;;;;;5046145;28;20041;-78
2021/03/09 11:57:36;;;;;;;22.40;13.93;;;5.50;99.90;;;;;;5036991;28;20057;-74
2021/03/09 12:00:07;;;;;;;22.73;13.90;;;5.60;99.90;;;;;;5025556;28;20153;-74
2021/03/09 12:02:33;;;;;;;21.33;13.27;;;5.60;99.90;;;;;;5036984;28;20053;-75
2021/03/09 12:04:59;;;;;;;22.55;14.00;;;5.50;99.90;;;;;;5040318;28;20766;-74
2021/03/09 12:07:25;;;;;;;21.08;13.20;;;5.50;99.90;;;;;;5045164;28;20033;-74
2021/03/09 12:09:51;;;;;;;20.92;13.95;;;5.40;99.90;;;;;;5024415;28;20119;-73
2021/03/09 12:12:17;;;;;;;21.75;14.25;;;5.40;99.90;;;;;;5019807;28;20041;-75
2021/03/09 12:14:43;;;;;;;23.25;14.57;;;5.40;99.90;;;;;;5046794;28;20445;-77
2021/03/09 12:17:09;;;;;;;26.77;15.75;;;5.40;99.90;;;;;;5040946;28;20041;-72
2021/03/09 12:19:35;;;;;;;25.00;15.05;;;5.40;99.90;;;;;;5046866;28;20041;-75
2021/03/09 12:22:00;;;;;;;25.98;15.75;;;5.90;99.90;;;;;;5019306;28;20085;-74
2021/03/09 12:24:27;;;;;;;25.98;16.33;;;5.50;99.90;;;;;;5029404;28;20490;-75
2021/03/09 12:26:53;;;;;;;25.27;14.93;;;5.50;99.90;;;;;;5045052;28;20116;-76
2021/03/09 12:29:19;;;;;;;25.60;16.40;;;5.60;99.90;;;;;;5046733;28;20646;-75
2021/03/09 12:31:45;;;;;;;26.00;15.52;;;5.60;99.90;;;;;;5041093;28;20406;-74
2021/03/09 12:34:11;;;;;;;22.80;15.18;;;5.70;99.90;;;;;;5012757;28;20033;-75
2021/03/09 12:36:37;;;;;;;27.52;16.65;;;5.70;99.90;;;;;;5047525;28;20474;-75
2021/03/09 12:39:03;;;;;;;26.40;16.33;;;5.70;99.90;;;;;;5047482;28;20068;-74
2021/03/09 12:41:29;;;;;;;;;;;5.70;99.90;;;;;;5047123;28;20441;-75
2021/03/09 12:43:55;;;;;;;24.33;15.73;;;5.60;99.90;;;;;;5043523;28;19920;-75
2021/03/09 12:46:20;;;;;;;31.70;16.45;;;5.50;99.90;;;;;;5046504;28;20372;-76
2021/03/09 12:48:46;;;;;;;24.55;15.70;;;5.50;99.90;;;;;;5044447;28;20128;-76
2021/03/09 12:51:12;;;;;;;24.50;15.90;;;5.50;99.90;;;;;;5026226;28;20442;-75